Time;durP1;ratioP1;P1;durP2;ratioP2;P2;SDS_P1;SDS_P2;PMS_P1;PMS_P2;Temp;Humidity;BMP_temperature;BMP_pressure;BME280_temperature;BME280_humidity;BME280_pressure;Samples;Min_cycle;Max_cycle;Signal;HPM_P1;HPM_P2
2021/01/23 00:02:03;;;;;;;1.92;0.95;;;;;;;6.19;92.24;92927.09;5051001;28;20045;-86
2021/01/23 00:04:29;;;;;;;;;;;;;;;6.24;91.39;92928.13;5050994;28;20425;-86
2021/01/23 00:06:55;;;;;;;2.58;1.48;;;;;;;6.31;91.03;92922.25;5063965;28;19924;-85
2021/01/23 00:09:22;;;;;;;1.60;0.98;;;;;;;6.36;90.94;92914.81;5070811;28;20045;-86
2021/01/23 00:11:49;;;;;;;3.28;1.10;;;;;;;6.39;90.82;92912.69;5070527;28;20048;-86
2021/01/23 00:14:15;;;;;;;;;;;;;;;6.40;90.49;92910.94;5071297;28;20048;-86
2021/01/23 00:16:41;;;;;;;1.27;0.70;;;;;;;6.44;90.42;92911.31;5070814;28;19920;-86
2021/01/23 00:19:07;;;;;;;1.50;0.63;;;;;;;6.39;90.07;92894.81;5070580;28;20118;-85
2021/01/23 00:21:33;;;;;;;;;;;;;;;6.48;90.49;92905.63;5071150;28;20048;-85
2021/01/23 00:24:00;;;;;;;3.92;1.02;;;;;;;6.43;90.27;92902.88;5070380;28;19924;-85
2021/01/23 00:26:27;;;;;;;5.97;0.98;;;;;;;6.36;89.98;92889.31;5070857;28;20053;-86
2021/01/23 00:28:53;;;;;;;5.72;2.47;;;;;;;6.50;90.05;92908.00;5070823;28;20447;-84
2021/01/23 00:31:19;;;;;;;3.78;1.52;;;;;;;6.60;89.21;92908.44;5071577;28;20060;-84
2021/01/23 00:33:45;;;;;;;5.88;2.55;;;;;;;6.56;89.77;92909.78;5074591;28;20428;-84
2021/01/23 00:36:12;;;;;;;5.20;1.70;;;;;;;6.48;89.44;92908.19;5074428;28;20056;-84
2021/01/23 00:38:38;;;;;;;2.13;1.00;;;;;;;6.51;89.75;92912.13;5074194;28;20048;-85
2021/01/23 00:41:04;;;;;;;8.50;1.27;;;;;;;6.47;90.08;92904.06;5074198;28;20493;-83
2021/01/23 00:43:31;;;;;;;3.05;1.45;;;;;;;6.36;90.78;92895.22;5074471;28;20052;-83
2021/01/23 00:45:57;;;;;;;1.67;0.77;;;;;;;6.33;91.43;92885.38;5074284;28;20389;-83
2021/01/23 00:48:24;;;;;;;2.47;1.25;;;;;;;6.30;92.08;92895.19;5073977;28;20063;-83
2021/01/23 00:50:50;;;;;;;2.58;0.95;;;;;;;6.23;92.47;92888.31;5074077;28;20075;-82
2021/01/23 00:53:16;;;;;;;2.78;1.17;;;;;;;6.28;92.75;92887.72;5073985;28;20049;-83
2021/01/23 00:55:42;;;;;;;2.92;1.50;;;;;;;6.21;93.33;92887.69;5074227;28;20053;-83
2021/01/23 00:58:08;;;;;;;2.17;1.13;;;;;;;6.14;93.29;92877.47;5074115;28;20041;-84
2021/01/23 01:00:35;;;;;;;;;;;;;;;6.10;93.35;92883.94;5074512;28;20044;-84
2021/01/23 01:03:02;;;;;;;1.90;1.10;;;;;;;6.07;93.83;92888.63;5073838;28;20372;-84
2021/01/23 01:05:28;;;;;;;;;;;;;;;6.05;93.95;92886.25;5074199;28;20044;-85
2021/01/23 01:07:54;;;;;;;1.95;0.85;;;;;;;6.01;93.64;92882.47;5073589;28;19978;-84
2021/01/23 01:10:20;;;;;;;3.15;1.50;;;;;;;5.89;94.12;92862.63;5073954;28;20051;-83
2021/01/23 01:12:46;;;;;;;1.60;1.08;;;;;;;6.01;94.08;92879.94;5073792;28;20048;-83
2021/01/23 01:15:13;;;;;;;2.70;1.38;;;;;;;5.97;94.45;92879.53;5073779;28;20519;-84
2021/01/23 01:17:40;;;;;;;1.50;1.20;;;;;;;5.94;93.53;92874.81;5073711;28;20393;-86
2021/01/23 01:20:07;;;;;;;7.18;1.40;;;;;;;6.12;93.28;92871.00;5073586;28;20052;-84
2021/01/23 01:22:33;;;;;;;2.97;1.45;;;;;;;6.01;92.46;92839.13;5073342;28;20048;-84
2021/01/23 01:24:59;;;;;;;2.00;0.88;;;;;;;6.04;92.77;92868.59;5073621;28;20053;-86
2021/01/23 01:27:26;;;;;;;1.13;0.52;;;;;;;6.11;92.55;92859.22;5073658;28;20048;-86
2021/01/23 01:29:52;;;;;;;1.60;0.95;;;;;;;6.14;92.14;92857.06;4988088;28;20045;-85
2021/01/23 01:32:18;;;;;;;2.70;1.30;;;;;;;6.12;92.02;92853.91;5073364;28;20044;-86
2021/01/23 01:34:45;;;;;;;3.22;1.67;;;;;;;6.12;91.18;92860.78;5073348;28;20090;-87
2021/01/23 01:37:11;;;;;;;3.80;1.65;;;;;;;6.09;90.57;92864.50;5073116;28;20048;-85
2021/01/23 01:39:37;;;;;;;4.63;1.40;;;;;;;6.10;91.23;92860.19;5073505;28;20455;-86
2021/01/23 01:42:04;;;;;;;1.95;1.00;;;;;;;6.04;90.78;92850.75;5073160;28;20048;-85
2021/01/23 01:44:30;;;;;;;2.05;1.00;;;;;;;5.96;91.38;92852.47;5072175;28;20059;-85
2021/01/23 01:46:58;;;;;;;1.75;1.00;;;;;;;5.99;91.36;92851.28;5073148;28;20053;-86
2021/01/23 01:49:24;;;;;;;1.70;1.10;;;;;;;6.00;91.28;92851.13;5072943;28;20048;-87
2021/01/23 01:51:53;;;;;;;;;;;;;;;5.98;91.13;92857.38;5073330;28;20497;-84
2021/01/23 01:54:21;;;;;;;2.25;1.15;;;;;;;5.86;91.49;92852.81;5073103;28;19969;-85
2021/01/23 01:56:47;;;;;;;2.53;1.17;;;;;;;5.82;91.50;92845.72;5073333;28;20048;-86
2021/01/23 01:59:13;;;;;;;2.28;0.82;;;;;;;5.79;91.81;92851.97;5073091;28;20044;-85
2021/01/23 02:01:39;;;;;;;1.27;0.70;;;;;;;5.81;91.74;92847.50;5072874;28;20044;-86
2021/01/23 02:04:31;;;;;;;1.77;1.33;;;;;;;5.75;92.04;92846.47;5072758;28;20193;-85
2021/01/23 02:07:27;;;;;;;4.15;1.00;;;;;;;5.71;92.55;92839.41;5072851;28;20052;-85
2021/01/23 02:10:13;;;;;;;1.90;1.00;;;;;;;5.73;92.01;92834.91;5071670;28;20056;-85
2021/01/23 02:12:51;;;;;;;5.72;1.10;;;;;;;5.67;92.64;92831.34;5072539;28;20052;-85
2021/01/23 02:15:21;;;;;;;2.38;1.00;;;;;;;5.65;92.96;92830.75;5072884;28;20048;-85
2021/01/23 02:17:52;;;;;;;1.52;0.68;;;;;;;5.73;92.48;92817.06;5072624;28;20052;-85
2021/01/23 02:20:51;;;;;;;1.83;0.80;;;;;;;5.61;93.01;92820.13;5072390;28;20055;-85
2021/01/23 02:23:24;;;;;;;2.03;1.20;;;;;;;5.66;92.90;92806.84;5054603;28;20044;-86
2021/01/23 02:26:04;;;;;;;2.22;0.90;;;;;;;5.64;94.41;92811.34;5072446;28;20099;-85
2021/01/23 02:28:44;;;;;;;2.97;1.35;;;;;;;5.66;93.62;92813.69;5072226;28;20057;-86
2021/01/23 02:31:14;;;;;;;1.35;0.85;;;;;;;5.58;95.16;92809.53;5072257;28;20052;-85
2021/01/23 02:33:42;;;;;;;2.33;1.10;;;;;;;5.53;95.48;92805.03;5072527;28;20109;-84
2021/01/23 02:36:11;;;;;;;1.63;0.82;;;;;;;5.50;95.40;92807.16;5072329;28;20408;-85
2021/01/23 02:38:38;;;;;;;1.75;1.05;;;;;;;5.38;95.97;92791.59;5071973;28;20057;-85
2021/01/23 02:41:05;;;;;;;2.80;1.30;;;;;;;5.32;96.31;92791.38;5072064;28;20041;-84
2021/01/23 02:43:32;;;;;;;4.70;1.20;;;;;;;5.45;96.70;92803.41;5072012;28;20049;-86
2021/01/23 02:45:59;;;;;;;2.65;1.35;;;;;;;5.41;97.32;92801.44;5071674;28;20048;-86
2021/01/23 02:48:26;;;;;;;;;;;;;;;5.38;97.98;92800.06;5072442;28;20052;-85
2021/01/23 02:50:58;;;;;;;4.57;1.33;;;;;;;5.30;98.31;92793.34;5071966;28;19921;-85
2021/01/23 02:53:29;;;;;;;3.30;1.38;;;;;;;5.34;98.90;92793.75;5071857;28;20101;-85
2021/01/23 02:55:59;;;;;;;4.07;1.35;;;;;;;5.32;99.00;92790.63;5071680;28;20052;-85
2021/01/23 02:58:30;;;;;;;2.22;1.00;;;;;;;5.37;98.82;92783.16;5071986;28;20048;-85
2021/01/23 03:01:01;;;;;;;3.00;1.50;;;;;;;5.41;98.27;92776.72;5071726;28;20044;-85
2021/01/23 03:03:30;;;;;;;3.08;1.58;;;;;;;5.40;98.65;92769.28;5071441;28;20040;-86
2021/01/23 03:06:01;;;;;;;2.53;1.20;;;;;;;5.38;98.61;92764.38;5071384;28;20059;-85
2021/01/23 03:08:28;;;;;;;2.67;1.25;;;;;;;5.43;98.65;92768.91;5071416;28;20106;-85
2021/01/23 03:10:54;;;;;;;;;;;;;;;5.41;98.94;92765.78;5071823;28;20366;-85
2021/01/23 03:13:20;;;;;;;1.70;1.00;;;;;;;5.35;99.23;92777.50;5071270;28;20430;-86
2021/01/23 03:15:46;;;;;;;3.00;1.20;;;;;;;5.32;98.80;92758.28;5071418;28;20420;-85
2021/01/23 03:18:13;;;;;;;2.65;1.60;;;;;;;5.36;98.67;92763.78;5071406;28;20390;-85
2021/01/23 03:20:40;;;;;;;;;;;;;;;5.39;99.36;92767.72;5071719;28;20044;-85
2021/01/23 03:23:06;;;;;;;2.95;1.00;;;;;;;5.27;98.85;92754.72;5071162;28;19931;-85
2021/01/23 03:25:32;;;;;;;;;;;;;;;5.36;98.74;92763.78;5071397;28;20044;-85
2021/01/23 03:27:59;;;;;;;1.50;0.82;;;;;;;5.32;99.00;92765.16;5071352;28;19924;-85
2021/01/23 03:30:26;;;;;;;1.67;1.02;;;;;;;5.30;100.00;92770.41;5071235;28;20094;-86
2021/01/23 03:32:53;;;;;;;3.55;2.05;;;;;;;5.29;99.47;92765.50;5071141;28;20052;-85
2021/01/23 03:35:20;;;;;;;6.47;1.70;;;;;;;5.39;99.35;92772.81;5071377;28;20055;-85
2021/01/23 03:37:47;;;;;;;3.45;1.65;;;;;;;5.42;99.06;92763.00;5070947;28;20049;-85
2021/01/23 03:40:14;;;;;;;2.55;1.08;;;;;;;5.35;98.92;92752.81;5071583;28;20420;-85
2021/01/23 03:42:40;;;;;;;3.08;1.25;;;;;;;5.33;99.57;92744.56;5071039;28;20055;-84
2021/01/23 03:45:09;;;;;;;1.98;1.02;;;;;;;5.44;99.41;92761.09;5070914;28;20053;-85
2021/01/23 03:47:36;;;;;;;3.13;1.30;;;;;;;5.34;99.53;92735.94;5070967;28;20045;-86
2021/01/23 03:50:03;;;;;;;2.97;1.40;;;;;;;5.53;99.07;92758.38;5070999;28;20420;-85
2021/01/23 03:52:29;;;;;;;2.83;1.40;;;;;;;5.59;98.88;92767.78;5070512;28;20045;-86
2021/01/23 03:54:56;;;;;;;4.45;2.35;;;;;;;5.61;98.88;92756.44;5071127;28;20429;-85
2021/01/23 03:57:22;;;;;;;5.25;1.23;;;;;;;5.71;98.58;92761.19;5070770;28;20049;-85
2021/01/23 03:59:49;;;;;;;2.45;1.35;;;;;;;5.71;97.82;92761.19;5070775;28;20044;-85
2021/01/23 04:02:15;;;;;;;1.95;1.05;;;;;;;5.74;97.37;92753.16;5070783;28;20044;-86
2021/01/23 04:04:41;;;;;;;2.42;1.38;;;;;;;5.72;97.56;92761.97;5070658;28;20044;-85
2021/01/23 04:07:07;;;;;;;2.88;1.35;;;;;;;5.72;98.45;92759.44;5069938;28;20060;-85
2021/01/23 04:09:33;;;;;;;3.17;1.73;;;;;;;5.71;97.71;92753.56;5070846;28;20048;-84
2021/01/23 04:12:01;;;;;;;4.70;1.38;;;;;;;5.66;98.04;92757.63;5070808;28;20045;-86
2021/01/23 04:14:27;;;;;;;1.70;0.90;;;;;;;5.70;97.76;92762.16;5070575;28;20048;-85
2021/01/23 04:16:53;;;;;;;3.40;1.67;;;;;;;5.67;98.64;92757.47;5070692;28;20094;-87
2021/01/23 04:19:20;;;;;;;3.10;2.10;;;;;;;5.57;98.71;92739.97;5067293;28;20511;-86
2021/01/23 04:21:47;;;;;;;6.43;2.33;;;;;;;5.64;98.28;92752.72;5070445;28;20051;-86
2021/01/23 04:24:13;;;;;;;5.75;2.47;;;;;;;5.65;98.42;92749.19;5070377;28;20045;-86
2021/01/23 04:26:39;;;;;;;4.32;1.77;;;;;;;5.64;98.75;92744.31;5070313;28;20059;-85
2021/01/23 04:29:07;;;;;;;4.00;1.85;;;;;;;5.61;99.83;92748.03;5070520;28;20130;-85
2021/01/23 04:31:33;;;;;;;6.55;2.28;;;;;;;5.58;100.00;92733.91;5070507;28;20094;-85
2021/01/23 04:33:59;;;;;;;;;;;;;;;5.62;100.00;92736.84;5071090;28;20471;-86
2021/01/23 04:36:26;;;;;;;2.63;1.27;;;;;;;5.41;100.00;92719.94;5070411;28;19930;-84
2021/01/23 04:38:52;;;;;;;3.78;1.80;;;;;;;5.59;100.00;92739.78;5070583;28;20088;-84
2021/01/23 04:41:18;;;;;;;;;;;;;;;5.59;100.00;92748.22;5071045;28;20071;-84
2021/01/23 04:43:45;;;;;;;2.67;0.85;;;;;;;5.56;100.00;92742.72;5070346;28;19920;-82
2021/01/23 04:46:12;;;;;;;2.97;0.90;;;;;;;5.56;100.00;92735.84;5070204;28;20451;-83
2021/01/23 04:48:39;;;;;;;2.05;1.25;;;;;;;5.60;100.00;92738.81;5070086;28;20053;-85
2021/01/23 04:51:05;;;;;;;;;;;;;;;5.59;100.00;92732.13;5070599;28;20048;-84
2021/01/23 04:53:32;;;;;;;2.88;1.50;;;;;;;5.59;100.00;92732.13;5070584;28;19924;-84
2021/01/23 04:55:58;;;;;;;2.58;1.20;;;;;;;5.60;100.00;92731.19;5070276;28;20412;-85
2021/01/23 04:58:24;;;;;;;4.50;1.38;;;;;;;5.58;100.00;92728.81;5070441;28;20165;-84
2021/01/23 05:00:51;;;;;;;5.00;2.00;;;;;;;5.66;100.00;92725.31;5070214;28;20075;-84
2021/01/23 05:03:18;;;;;;;1.88;1.05;;;;;;;5.65;100.00;92723.72;5069900;28;20048;-86
2021/01/23 05:06:03;;;;;;;3.83;1.55;;;;;;;5.62;100.00;92724.88;5070312;28;20049;-85
2021/01/23 05:08:36;;;;;;;5.70;1.73;;;;;;;5.64;100.00;92719.59;5069958;28;20489;-86
2021/01/23 05:11:02;;;;;;;4.65;1.70;;;;;;;5.70;100.00;92713.75;5070101;28;20128;-83
2021/01/23 05:13:28;;;;;;;;;;;;;;;5.71;100.00;92722.97;5064145;28;20118;-84
2021/01/23 05:15:54;;;;;;;3.85;1.58;;;;;;;5.67;100.00;92703.94;5059292;28;19928;-86
2021/01/23 05:18:21;;;;;;;;;;;;;;;5.66;100.00;92706.69;5061224;28;20045;-85
2021/01/23 05:20:49;;;;;;;2.47;1.52;;;;;;;5.60;100.00;92692.97;5057866;28;19948;-84
2021/01/23 05:23:17;;;;;;;7.32;2.05;;;;;;;5.68;100.00;92704.72;5068208;28;20094;-84
2021/01/23 05:25:49;;;;;;;3.20;1.02;;;;;;;5.71;100.00;92702.59;5080048;28;20041;-84
2021/01/23 05:28:25;;;;;;;2.90;1.85;;;;;;;5.60;100.00;92685.31;5058627;28;20052;-84
2021/01/23 05:30:52;;;;;;;3.60;1.20;;;;;;;5.65;100.00;92694.91;5066124;28;20048;-84
2021/01/23 05:33:20;;;;;;;2.28;1.35;;;;;;;5.65;100.00;92692.38;5073617;28;20131;-85
2021/01/23 05:35:57;;;;;;;2.58;1.45;;;;;;;5.67;100.00;92688.66;5073368;28;20481;-83
2021/01/23 05:38:29;;;;;;;2.38;1.30;;;;;;;5.65;100.00;92680.41;5068549;28;20041;-86
2021/01/23 05:40:57;;;;;;;3.03;1.23;;;;;;;5.69;100.00;92688.47;5071547;28;20048;-86
2021/01/23 05:43:34;;;;;;;3.15;0.93;;;;;;;5.68;100.00;92687.66;5073270;28;20048;-85
2021/01/23 05:46:03;;;;;;;1.17;0.70;;;;;;;5.77;100.00;92690.81;5073138;28;20044;-84
2021/01/23 05:48:30;;;;;;;2.70;1.40;;;;;;;5.79;100.00;92688.84;5072825;28;20052;-85
2021/01/23 05:50:57;;;;;;;3.55;1.30;;;;;;;5.77;99.92;92697.69;5073028;28;20417;-85
2021/01/23 05:53:23;;;;;;;3.17;1.75;;;;;;;5.73;99.91;92695.53;5072760;28;20074;-85
2021/01/23 05:55:50;;;;;;;3.47;1.40;;;;;;;5.69;100.00;92681.59;5065197;28;20481;-84
2021/01/23 05:58:17;;;;;;;2.00;1.02;;;;;;;5.77;100.00;92697.69;5052958;28;20072;-85
2021/01/23 06:00:43;;;;;;;4.25;2.05;;;;;;;5.56;100.00;92656.84;5052956;28;20045;-84
2021/01/23 06:03:10;;;;;;;4.40;1.42;;;;;;;5.80;100.00;92685.34;5052779;28;20095;-84
2021/01/23 06:05:37;;;;;;;3.67;1.95;;;;;;;5.79;100.00;92672.81;5052720;28;20041;-85
2021/01/23 06:08:05;;;;;;;3.85;1.60;;;;;;;5.78;100.00;92679.66;5052353;28;20446;-86
2021/01/23 06:10:36;;;;;;;5.90;2.13;;;;;;;5.75;100.00;92672.41;5053079;28;20041;-84
2021/01/23 06:13:03;;;;;;;7.20;2.28;;;;;;;5.80;100.00;92659.88;5052667;28;20048;-86
2021/01/23 06:15:37;;;;;;;10.55;3.95;;;;;;;5.87;100.00;92665.75;5052688;28;20524;-85
2021/01/23 06:18:06;;;;;;;8.93;3.63;;;;;;;5.92;100.00;92659.31;5052480;28;20049;-84
2021/01/23 06:20:51;;;;;;;4.93;2.55;;;;;;;5.94;100.00;92664.97;5052384;28;20045;-85
2021/01/23 06:23:20;;;;;;;5.28;1.98;;;;;;;6.01;100.00;92658.91;5052567;28;20049;-85
2021/01/23 06:26:01;;;;;;;5.35;2.20;;;;;;;6.00;100.00;92661.66;5052453;28;20052;-85
2021/01/23 06:28:52;;;;;;;5.93;3.65;;;;;;;6.09;99.80;92654.63;5052207;28;20186;-85
2021/01/23 06:31:35;;;;;;;6.68;2.88;;;;;;;6.05;99.33;92641.47;5071001;28;20086;-86
2021/01/23 06:34:27;;;;;;;12.70;3.03;;;;;;;6.17;98.98;92662.09;5072459;28;20131;-86
2021/01/23 06:37:19;;;;;;;5.95;2.72;;;;;;;6.17;98.27;92658.75;5072107;28;20045;-85
2021/01/23 06:40:09;;;;;;;9.73;3.92;;;;;;;6.26;98.63;92666.00;5072078;28;20048;-85
2021/01/23 06:42:37;;;;;;;6.82;3.78;;;;;;;6.26;98.49;92650.69;5072106;28;20044;-84
2021/01/23 06:45:18;;;;;;;8.43;5.30;;;;;;;6.37;98.37;92658.75;5072283;28;20511;-84
2021/01/23 06:47:46;;;;;;;9.57;4.47;;;;;;;6.39;97.74;92661.91;5071709;28;20048;-84
2021/01/23 06:50:13;;;;;;;9.82;4.32;;;;;;;6.36;97.10;92660.53;5072052;28;20086;-84
2021/01/23 06:52:47;;;;;;;4.97;3.47;;;;;;;6.43;97.09;92663.06;5071900;28;20056;-83
2021/01/23 06:55:16;;;;;;;7.75;3.42;;;;;;;6.51;96.75;92667.97;5071632;28;20077;-85
2021/01/23 06:57:46;;;;;;;8.93;4.10;;;;;;;6.43;96.77;92650.28;5066056;28;20106;-84
2021/01/23 07:00:14;;;;;;;11.60;4.85;;;;;;;6.53;96.47;92662.69;5071743;28;20407;-84
2021/01/23 07:02:40;;;;;;;9.55;4.47;;;;;;;6.60;95.90;92652.44;5071544;28;20408;-85
2021/01/23 07:05:07;;;;;;;;;;;;;;;6.72;95.39;92668.75;5072106;28;20194;-84
2021/01/23 07:07:36;;;;;;;8.18;3.08;;;;;;;6.59;95.04;92643.22;5053979;28;19990;-85
2021/01/23 07:10:06;;;;;;;7.43;3.08;;;;;;;6.71;95.34;92656.94;5051519;28;20110;-84
2021/01/23 07:12:37;;;;;;;11.13;4.60;;;;;;;6.81;94.68;92649.66;5087976;28;20066;-84
2021/01/23 07:15:06;;;;;;;11.10;4.95;;;;;;;6.87;94.71;92655.75;5091867;28;20097;-85
2021/01/23 07:17:35;;;;;;;8.35;4.07;;;;;;;6.83;94.01;92639.25;5071776;28;20091;-86
2021/01/23 07:20:04;;;;;;;5.53;3.22;;;;;;;7.01;93.13;92653.94;5071308;28;20048;-85
2021/01/23 07:22:31;;;;;;;13.20;8.07;;;;;;;7.01;92.48;92653.94;5071151;28;20049;-85
2021/01/23 07:24:57;;;;;;;;;;;;;;;7.01;92.23;92655.69;5071498;28;20546;-85
2021/01/23 07:27:25;;;;;;;2.97;1.63;;;;;;;6.99;92.66;92655.13;5071293;28;19954;-85
2021/01/23 07:29:52;;;;;;;5.32;2.67;;;;;;;7.08;92.55;92659.81;5064636;28;20044;-85
2021/01/23 07:32:18;;;;;;;6.35;3.70;;;;;;;7.13;92.59;92648.19;5051071;28;20045;-85
2021/01/23 07:34:54;;;;;;;;;;;;;;;7.14;91.83;92654.88;5051558;28;20484;-85
2021/01/23 07:37:41;;;;;;;9.07;4.63;;;;;;;7.08;92.42;92648.78;5050841;28;19967;-85
2021/01/23 07:40:10;;;;;;;25.00;11.27;;;;;;;7.11;91.78;92648.41;5051007;28;20049;-84
2021/01/23 07:42:36;;;;;;;15.73;7.43;;;;;;;7.14;91.82;92649.75;5050502;28;20078;-86
2021/01/23 07:45:06;;;;;;;27.55;13.32;;;;;;;7.18;91.69;92659.38;5050901;28;20049;-86
2021/01/23 07:47:32;;;;;;;9.05;5.70;;;;;;;7.25;91.17;92661.91;5050860;28;20115;-84
2021/01/23 07:50:10;;;;;;;54.78;25.15;;;;;;;7.25;91.53;92654.25;5050762;28;20084;-85
2021/01/23 07:52:37;;;;;;;20.77;9.57;;;;;;;7.19;91.93;92662.72;5051049;28;20049;-84
2021/01/23 07:55:05;;;;;;;26.15;13.35;;;;;;;7.19;91.90;92663.47;5051006;28;20425;-86
2021/01/23 07:57:31;;;;;;;17.63;7.03;;;;;;;7.25;92.25;92658.56;5050794;28;20041;-84
2021/01/23 07:59:58;;;;;;;9.48;4.78;;;;;;;7.29;91.79;92657.16;5050791;28;20543;-85
2021/01/23 08:02:25;;;;;;;74.63;26.05;;;;;;;7.40;91.42;92659.09;5050645;28;20052;-83
2021/01/23 08:04:53;;;;;;;49.17;17.98;;;;;;;7.45;91.29;92664.38;5050841;28;20048;-85
2021/01/23 08:07:25;;;;;;;16.85;7.95;;;;;;;7.49;90.92;92659.63;5050570;28;20041;-85
2021/01/23 08:10:05;;;;;;;7.70;3.65;;;;;;;7.43;90.43;92637.47;5050660;28;20045;-85
2021/01/23 08:12:31;;;;;;;10.77;4.88;;;;;;;7.76;90.15;92672.28;5050766;28;20052;-82
2021/01/23 08:14:58;;;;;;;66.93;19.52;;;;;;;7.87;89.91;92675.97;5050580;28;20041;-85
2021/01/23 08:17:38;;;;;;;62.95;16.13;;;;;;;7.98;89.66;92674.53;5069007;28;20056;-86
2021/01/23 08:20:06;;;;;;;34.47;11.18;;;;;;;7.97;89.98;92657.63;5070755;28;20048;-83
2021/01/23 08:22:32;;;;;;;152.93;39.72;;;;;;;8.15;89.65;92662.78;5070763;28;20045;-83
2021/01/23 08:24:59;;;;;;;37.95;13.20;;;;;;;8.31;89.28;92663.28;5070412;28;20049;-83
2021/01/23 08:27:26;;;;;;;;;;;;;;;8.36;88.87;92667.75;5070812;28;20059;-82
2021/01/23 08:29:52;;;;;;;19.52;5.90;;;;;;;8.43;89.63;92679.50;5063657;28;20336;-84
2021/01/23 08:32:19;;;;;;;43.35;14.05;;;;;;;8.54;88.83;92659.38;5050606;28;20064;-83
2021/01/23 08:34:46;;;;;;;38.95;12.27;;;;;;;8.53;88.50;92670.63;5050666;28;20432;-84
2021/01/23 08:37:13;;;;;;;285.77;75.30;;;;;;;8.60;88.71;92675.69;5050258;28;20500;-83
2021/01/23 08:39:42;;;;;;;;;;;;;;;8.62;88.36;92666.00;5050718;28;20048;-85
2021/01/23 08:42:09;;;;;;;184.70;56.92;;;;;;;8.59;88.42;92661.28;5050174;28;20403;-83
2021/01/23 08:44:35;;;;;;;60.40;21.27;;;;;;;8.68;88.19;92662.59;5050792;28;20044;-84
2021/01/23 08:47:03;;;;;;;64.75;19.23;;;;;;;8.71;88.24;92649.38;5050405;28;20098;-85
2021/01/23 08:49:29;;;;;;;55.55;16.25;;;;;;;8.85;88.20;92655.16;5050268;28;20045;-86
2021/01/23 08:51:57;;;;;;;34.03;12.40;;;;;;;8.99;86.95;92631.97;5050457;28;20505;-85
2021/01/23 08:54:23;;;;;;;55.70;17.67;;;;;;;9.06;86.64;92646.28;5054132;28;20049;-85
2021/01/23 08:56:49;;;;;;;58.53;17.67;;;;;;;9.18;86.61;92654.03;5068329;28;20114;-83
2021/01/23 08:59:15;;;;;;;21.38;8.20;;;;;;;9.07;86.31;92634.22;5073960;28;20542;-85
2021/01/23 09:01:42;;;;;;;19.73;6.78;;;;;;;9.20;86.89;92639.22;5074166;28;20049;-86
2021/01/23 09:04:08;;;;;;;35.10;13.32;;;;;;;9.37;86.42;92633.50;5074174;28;20401;-85
2021/01/23 09:06:35;;;;;;;16.25;5.05;;;;;;;9.69;85.92;92627.38;5073859;28;20043;-85
2021/01/23 09:09:03;;;;;;;41.33;11.75;;;;;;;9.98;83.94;92630.13;5073637;28;20052;-86
2021/01/23 09:11:29;;;;;;;36.20;12.90;;;;;;;10.09;83.96;92626.03;5073724;28;20056;-82
2021/01/23 09:13:56;;;;;;;16.10;7.18;;;;;;;10.17;82.25;92610.31;5073909;28;20057;-82
2021/01/23 09:16:22;;;;;;;16.20;5.78;;;;;;;10.36;81.59;92626.38;5063793;28;20092;-84
2021/01/23 09:18:48;;;;;;;;;;;;;;;10.36;81.63;92611.00;5068391;28;20041;-83
2021/01/23 09:21:14;;;;;;;13.82;3.97;;;;;;;10.42;80.98;92609.31;5075217;28;20437;-82
2021/01/23 09:23:40;;;;;;;15.95;6.20;;;;;;;10.54;80.77;92599.88;5073578;28;20056;-83
2021/01/23 09:26:07;;;;;;;9.05;3.53;;;;;;;10.54;79.91;92609.34;5073713;28;20098;-84
2021/01/23 09:28:33;;;;;;;7.15;3.70;;;;;;;10.58;79.29;92601.97;5073305;28;20057;-84
2021/01/23 09:31:00;;;;;;;12.25;5.10;;;;;;;10.56;79.37;92608.13;5057126;28;20390;-84
2021/01/23 09:33:26;;;;;;;8.25;2.47;;;;;;;10.54;79.06;92607.56;5053416;28;20057;-84
2021/01/23 09:35:52;;;;;;;6.75;1.55;;;;;;;10.13;78.40;92534.75;5053330;28;20536;-83
2021/01/23 09:38:19;;;;;;;3.13;1.90;;;;;;;10.63;78.09;92599.50;5053195;28;20048;-85
2021/01/23 09:40:45;;;;;;;4.35;2.53;;;;;;;10.63;77.56;92597.72;5067001;28;20044;-84
2021/01/23 09:43:12;;;;;;;3.67;1.27;;;;;;;10.61;77.80;92591.25;5073344;28;20052;-84
2021/01/23 09:45:38;;;;;;;3.63;1.50;;;;;;;10.63;76.45;92596.94;5073063;28;20041;-83
2021/01/23 09:48:05;;;;;;;;;;;;;;;10.65;77.23;92582.09;5060947;28;20546;-85
2021/01/23 09:50:31;;;;;;;3.20;0.55;;;;;;;10.67;77.53;92572.38;5073054;28;19920;-84
2021/01/23 09:52:57;;;;;;;3.15;0.75;;;;;;;10.73;76.32;92570.69;5072545;28;20052;-84
2021/01/23 09:55:23;;;;;;;;;;;;;;;10.74;76.28;92556.84;5073564;28;20577;-84
2021/01/23 09:57:49;;;;;;;2.85;1.23;;;;;;;10.81;76.29;92549.78;5073059;28;19920;-84
2021/01/23 10:00:18;;;;;;;4.60;2.22;;;;;;;10.73;75.64;92525.22;5072936;28;20040;-82
2021/01/23 10:02:44;;;;;;;4.63;0.57;;;;;;;10.67;76.04;92544.91;5072731;28;20048;-84
2021/01/23 10:05:12;;;;;;;1.23;0.50;;;;;;;10.46;76.96;92532.66;5071932;28;20044;-84
2021/01/23 10:07:38;;;;;;;0.90;0.65;;;;;;;10.43;77.47;92521.81;5072618;28;20106;-83
2021/01/23 10:10:05;;;;;;;3.05;1.05;;;;;;;10.35;78.65;92527.28;5073014;28;20052;-85
2021/01/23 10:12:32;;;;;;;2.85;0.98;;;;;;;10.22;77.91;92530.84;5072592;28;20040;-86
2021/01/23 10:14:58;;;;;;;4.18;1.10;;;;;;;10.07;79.36;92535.66;5072744;28;20045;-85
2021/01/23 10:17:25;;;;;;;4.20;1.15;;;;;;;10.00;79.90;92525.50;5054100;28;20053;-86
2021/01/23 10:19:52;;;;;;;2.92;0.93;;;;;;;9.91;80.08;92519.13;5052469;28;20041;-84
2021/01/23 10:22:18;;;;;;;3.65;1.13;;;;;;;10.04;80.95;92524.03;5052678;28;20049;-85
2021/01/23 10:24:44;;;;;;;2.50;1.17;;;;;;;10.07;80.86;92531.31;5052543;28;20049;-84
2021/01/23 10:27:11;;;;;;;49.47;15.02;;;;;;;10.12;80.60;92521.16;5052515;28;20099;-84
2021/01/23 10:29:37;;;;;;;76.47;25.05;;;;;;;9.98;80.86;92510.34;5052209;28;20098;-86
2021/01/23 10:32:03;;;;;;;;;;;;;;;9.93;81.40;92504.28;5052769;28;20045;-84
2021/01/23 10:34:30;;;;;;;17.42;8.82;;;;;;;9.86;81.98;92502.63;5052141;28;20388;-84
2021/01/23 10:36:56;;;;;;;7.90;3.30;;;;;;;9.84;82.30;92503.84;5052010;28;20417;-85
2021/01/23 10:39:23;;;;;;;3.65;1.20;;;;;;;9.83;82.38;92499.72;5052251;28;20055;-84
2021/01/23 10:41:49;;;;;;;2.20;1.10;;;;;;;10.00;81.50;92492.91;5052059;28;20049;-82
2021/01/23 10:44:15;;;;;;;1.55;0.85;;;;;;;9.97;81.01;92495.16;5051948;28;20508;-84
2021/01/23 10:46:41;;;;;;;;;;;;;;;10.01;81.19;92491.91;5052744;28;20063;-84
2021/01/23 10:49:08;;;;;;;1.17;0.77;;;;;;;9.88;81.47;92479.31;5051683;28;19920;-86
2021/01/23 10:51:35;;;;;;;3.40;2.05;;;;;;;9.97;81.35;92479.75;5052059;28;20063;-85
2021/01/23 10:54:01;;;;;;;3.17;1.40;;;;;;;10.03;80.51;92476.31;5051945;28;20056;-83
2021/01/23 10:56:28;;;;;;;1.70;0.85;;;;;;;10.12;80.02;92474.16;5051989;28;20436;-85
2021/01/23 10:59:00;;;;;;;4.97;2.55;;;;;;;10.14;79.66;92460.13;5051665;28;20167;-83
2021/01/23 11:01:27;;;;;;;4.13;1.23;;;;;;;10.26;79.18;92461.88;5051636;28;20493;-84
2021/01/23 11:03:53;;;;;;;3.15;1.35;;;;;;;10.29;78.78;92453.75;5051504;28;20479;-85
2021/01/23 11:06:19;;;;;;;23.52;7.88;;;;;;;10.37;78.84;92455.19;5051597;28;20045;-85
2021/01/23 11:08:46;;;;;;;36.50;9.55;;;;;;;10.40;77.92;92450.38;5051583;28;20541;-84
2021/01/23 11:11:12;;;;;;;34.25;11.18;;;;;;;10.34;78.05;92446.16;5051692;28;20052;-85
2021/01/23 11:13:39;;;;;;;31.50;11.80;;;;;;;10.36;78.09;92449.25;5062323;28;20045;-85
2021/01/23 11:16:05;;;;;;;6.85;3.70;;;;;;;10.28;78.17;92440.13;5071458;28;20048;-84
2021/01/23 11:18:31;;;;;;;6.80;3.85;;;;;;;10.13;78.05;92420.06;5071226;28;20374;-87
2021/01/23 11:20:58;;;;;;;6.05;3.03;;;;;;;10.07;77.75;92415.03;5071194;28;20052;-84
2021/01/23 11:23:24;;;;;;;5.47;2.25;;;;;;;10.17;77.73;92433.22;5071399;28;20048;-86
2021/01/23 11:25:51;;;;;;;6.18;2.38;;;;;;;10.18;78.14;92426.31;5071182;28;20420;-85
2021/01/23 11:28:17;;;;;;;5.00;1.02;;;;;;;10.05;78.12;92423.00;5071085;28;20082;-85
2021/01/23 11:30:44;;;;;;;3.95;1.27;;;;;;;9.89;78.20;92402.16;5056999;28;20056;-85
2021/01/23 11:33:10;;;;;;;4.00;1.40;;;;;;;10.07;77.75;92408.13;5051153;28;20053;-85
2021/01/23 11:35:36;;;;;;;8.13;1.85;;;;;;;10.03;78.25;92407.81;5051373;28;20051;-85
2021/01/23 11:38:02;;;;;;;5.43;1.38;;;;;;;10.00;78.14;92404.94;5051372;28;20087;-84
2021/01/23 11:40:29;;;;;;;4.40;2.13;;;;;;;9.97;78.48;92401.03;5051040;28;20052;-84
2021/01/23 11:42:56;;;;;;;;;;;;;;;9.90;78.01;92402.91;5051431;28;20053;-83
2021/01/23 11:45:22;;;;;;;4.00;1.60;;;;;;;9.81;78.01;92394.03;5050834;28;19925;-86
2021/01/23 11:47:48;;;;;;;2.95;1.60;;;;;;;9.74;77.24;92382.09;5051089;28;20139;-83